首页
METAR-TAF:

METAR-TAF

机场 :

Coningsby, 英格兰

纬度: 53-05N, 经度: 000-10W, 海拔: 7米

当前天气观测

该预报发布于36分钟前的13:50 UTC
风速22节,风向西转西北,有时为39节阵风
温度 9°C
湿度 57%
气压 1013 hPa
能见度10公里或以上
少量云层高于3000英尺

METAR: EGXC 231350Z 29022G39KT 9999 FEW030 09/01 Q1013 RMK BLU

时间: 14:26 (14:26 UTC)

预报

该预报发布于2小时和23分钟前的12:03 UTC
预报有效从23日的 12点(UTC)到 24日的 06点(UTC)
风速17节,风向西转西北,有时为28节阵风
能见度10公里或以上
散云层高于3000英尺
几率 30% :
短暂存在
从 23日的 12点(UTC)到 23日的 15点(UTC)
散云层高于1800英尺
小阵雨
成为
从 23日的 16点(UTC)到 23日的 18点(UTC)
风速12节,风向西
成为
从 24日的 02点(UTC)到 24日的 04点(UTC)
能見度: 6000
多云层高于800英尺
小雨
短暂存在
从 24日的 04点(UTC)到 24日的 06点(UTC)
能見度: 3000
多云层高于400英尺

TAF: EGXC 231203Z 2312/2406 29017G28KT 9999 SCT030 PROB30 TEMPO 2312/2315 -SHRA SCT018 BECMG 2316/2318 27012KT BECMG 2402/2404 6000 -RA BKN008 TEMPO 2404/2406 3000 RA BKN004

超过4000个机场的气象观测和天气预报(METAR&TAF报告)。

可查询的气象台以黄色和红色小点在地图上表示。

将鼠标移到小点上方,可查看气象台名称。

然后点击查看天气观测和预报。

如需切换地图:点击带黑十字的绿色按钮放大地图;点击带横线的绿色按钮缩小地图;或者点击绿色箭头查看邻近地区的地图。


METAR-TAF: